sensor_id;sensor_type;location;lat;lon;timestamp;temperature;humidity
13115;DHT22;6623;52.120;8.660;2022-09-19T00:01:18;20.60;51.00
13115;DHT22;6623;52.120;8.660;2022-09-19T00:03:46;20.60;51.00
13115;DHT22;6623;52.120;8.660;2022-09-19T00:06:14;20.60;51.10
13115;DHT22;6623;52.120;8.660;2022-09-19T00:08:42;20.60;51.00
13115;DHT22;6623;52.120;8.660;2022-09-19T00:11:08;20.60;51.00
13115;DHT22;6623;52.120;8.660;2022-09-19T00:13:36;20.60;51.60
13115;DHT22;6623;52.120;8.660;2022-09-19T00:16:03;20.60;51.00
13115;DHT22;6623;52.120;8.660;2022-09-19T00:18:29;20.60;51.00
13115;DHT22;6623;52.120;8.660;2022-09-19T00:20:55;20.60;51.10
13115;DHT22;6623;52.120;8.660;2022-09-19T00:23:21;20.60;51.00
13115;DHT22;6623;52.120;8.660;2022-09-19T00:26:08;20.60;51.00
13115;DHT22;6623;52.120;8.660;2022-09-19T00:28:34;20.60;51.00
13115;DHT22;6623;52.120;8.660;2022-09-19T00:31:01;20.60;51.00
13115;DHT22;6623;52.120;8.660;2022-09-19T00:33:30;20.60;51.00
13115;DHT22;6623;52.120;8.660;2022-09-19T00:35:57;20.60;51.00
13115;DHT22;6623;52.120;8.660;2022-09-19T00:38:24;20.60;51.00
13115;DHT22;6623;52.120;8.660;2022-09-19T00:40:50;20.60;51.00
13115;DHT22;6623;52.120;8.660;2022-09-19T00:43:18;20.60;51.00
13115;DHT22;6623;52.120;8.660;2022-09-19T00:45:44;20.60;51.00
13115;DHT22;6623;52.120;8.660;2022-09-19T00:48:10;20.60;51.00
13115;DHT22;6623;52.120;8.660;2022-09-19T00:50:38;20.60;51.00
13115;DHT22;6623;52.120;8.660;2022-09-19T00:53:09;20.60;51.00
13115;DHT22;6623;52.120;8.660;2022-09-19T00:55:36;20.60;51.00
13115;DHT22;6623;52.120;8.660;2022-09-19T01:00:31;20.60;51.00
13115;DHT22;6623;52.120;8.660;2022-09-19T01:03:00;20.60;51.00
13115;DHT22;6623;52.120;8.660;2022-09-19T01:05:31;20.60;51.00
13115;DHT22;6623;52.120;8.660;2022-09-19T01:17:00;20.60;51.00
13115;DHT22;6623;52.120;8.660;2022-09-19T01:19:46;20.60;51.00
13115;DHT22;6623;52.120;8.660;2022-09-19T01:27:30;20.50;51.00
13115;DHT22;6623;52.120;8.660;2022-09-19T01:30:06;20.50;51.00
13115;DHT22;6623;52.120;8.660;2022-09-19T01:32:38;20.60;51.00
13115;DHT22;6623;52.120;8.660;2022-09-19T01:35:10;20.60;51.00
13115;DHT22;6623;52.120;8.660;2022-09-19T01:37:43;20.60;51.10
13115;DHT22;6623;52.120;8.660;2022-09-19T01:40:12;20.50;51.00
13115;DHT22;6623;52.120;8.660;2022-09-19T01:42:50;20.60;51.00
13115;DHT22;6623;52.120;8.660;2022-09-19T01:45:19;20.60;51.00
13115;DHT22;6623;52.120;8.660;2022-09-19T01:48:02;20.50;51.00
13115;DHT22;6623;52.120;8.660;2022-09-19T01:53:44;20.60;51.00
13115;DHT22;6623;52.120;8.660;2022-09-19T01:56:25;20.50;51.00
13115;DHT22;6623;52.120;8.660;2022-09-19T01:59:58;20.50;51.00
13115;DHT22;6623;52.120;8.660;2022-09-19T02:04:49;20.60;51.00
13115;DHT22;6623;52.120;8.660;2022-09-19T02:07:49;20.50;51.00
13115;DHT22;6623;52.120;8.660;2022-09-19T02:10:25;20.50;51.00
13115;DHT22;6623;52.120;8.660;2022-09-19T02:12:54;20.50;51.00
13115;DHT22;6623;52.120;8.660;2022-09-19T02:15:25;20.60;51.00
13115;DHT22;6623;52.120;8.660;2022-09-19T02:17:56;20.50;51.00
13115;DHT22;6623;52.120;8.660;2022-09-19T02:20:30;20.50;50.90
13115;DHT22;6623;52.120;8.660;2022-09-19T02:23:06;20.50;51.00
13115;DHT22;6623;52.120;8.660;2022-09-19T02:25:34;20.50;51.00
13115;DHT22;6623;52.120;8.660;2022-09-19T02:28:10;20.50;50.90
13115;DHT22;6623;52.120;8.660;2022-09-19T02:30:38;20.50;50.90
13115;DHT22;6623;52.120;8.660;2022-09-19T02:33:05;20.50;51.00
13115;DHT22;6623;52.120;8.660;2022-09-19T02:38:24;20.50;50.90
13115;DHT22;6623;52.120;8.660;2022-09-19T02:41:03;20.50;50.90
13115;DHT22;6623;52.120;8.660;2022-09-19T02:43:50;20.50;50.90
13115;DHT22;6623;52.120;8.660;2022-09-19T02:46:26;20.50;50.90
13115;DHT22;6623;52.120;8.660;2022-09-19T02:49:11;20.50;50.90
13115;DHT22;6623;52.120;8.660;2022-09-19T02:51:48;20.60;51.00
13115;DHT22;6623;52.120;8.660;2022-09-19T02:54:19;20.50;51.00
13115;DHT22;6623;52.120;8.660;2022-09-19T02:56:47;20.50;51.00
13115;DHT22;6623;52.120;8.660;2022-09-19T02:59:27;20.50;50.90
13115;DHT22;6623;52.120;8.660;2022-09-19T03:02:43;20.50;50.90
13115;DHT22;6623;52.120;8.660;2022-09-19T03:04:51;20.50;50.90
13115;DHT22;6623;52.120;8.660;2022-09-19T03:07:31;20.50;50.90
13115;DHT22;6623;52.120;8.660;2022-09-19T03:10:10;20.50;51.00
13115;DHT22;6623;52.120;8.660;2022-09-19T03:12:48;20.50;50.90
13115;DHT22;6623;52.120;8.660;2022-09-19T03:15:20;20.50;50.90
13115;DHT22;6623;52.120;8.660;2022-09-19T03:17:48;20.50;50.90
13115;DHT22;6623;52.120;8.660;2022-09-19T03:20:16;20.50;50.90
13115;DHT22;6623;52.120;8.660;2022-09-19T03:22:43;20.50;50.90
13115;DHT22;6623;52.120;8.660;2022-09-19T03:25:11;20.50;50.90
13115;DHT22;6623;52.120;8.660;2022-09-19T03:27:39;20.50;50.90
13115;DHT22;6623;52.120;8.660;2022-09-19T03:30:10;20.50;50.90
13115;DHT22;6623;52.120;8.660;2022-09-19T03:32:37;20.50;50.90
13115;DHT22;6623;52.120;8.660;2022-09-19T03:35:05;20.50;50.90
13115;DHT22;6623;52.120;8.660;2022-09-19T03:37:31;20.50;50.90
13115;DHT22;6623;52.120;8.660;2022-09-19T03:40:01;20.50;50.90
13115;DHT22;6623;52.120;8.660;2022-09-19T03:42:27;20.50;50.90
13115;DHT22;6623;52.120;8.660;2022-09-19T03:44:54;20.50;50.90
13115;DHT22;6623;52.120;8.660;2022-09-19T03:47:20;20.50;50.90
13115;DHT22;6623;52.120;8.660;2022-09-19T03:49:47;20.50;50.90
13115;DHT22;6623;52.120;8.660;2022-09-19T03:52:16;20.50;50.90
13115;DHT22;6623;52.120;8.660;2022-09-19T03:54:41;20.50;50.90
13115;DHT22;6623;52.120;8.660;2022-09-19T03:57:07;20.50;50.90
13115;DHT22;6623;52.120;8.660;2022-09-19T03:59:33;20.50;50.90
13115;DHT22;6623;52.120;8.660;2022-09-19T04:01:59;20.50;50.90
13115;DHT22;6623;52.120;8.660;2022-09-19T04:04:24;20.50;50.90
13115;DHT22;6623;52.120;8.660;2022-09-19T04:06:51;20.50;50.90
13115;DHT22;6623;52.120;8.660;2022-09-19T04:09:17;20.50;50.90
13115;DHT22;6623;52.120;8.660;2022-09-19T04:11:42;20.50;50.90
13115;DHT22;6623;52.120;8.660;2022-09-19T04:14:08;20.50;50.90
13115;DHT22;6623;52.120;8.660;2022-09-19T04:16:34;20.50;50.90
13115;DHT22;6623;52.120;8.660;2022-09-19T04:19:00;20.50;50.90
13115;DHT22;6623;52.120;8.660;2022-09-19T04:21:25;20.50;50.90
13115;DHT22;6623;52.120;8.660;2022-09-19T04:23:52;20.50;50.90
13115;DHT22;6623;52.120;8.660;2022-09-19T04:26:20;20.50;50.90
13115;DHT22;6623;52.120;8.660;2022-09-19T04:28:46;20.50;50.90
13115;DHT22;6623;52.120;8.660;2022-09-19T04:31:13;20.50;50.90
13115;DHT22;6623;52.120;8.660;2022-09-19T04:33:39;20.50;50.90
13115;DHT22;6623;52.120;8.660;2022-09-19T04:36:05;20.50;50.90
13115;DHT22;6623;52.120;8.660;2022-09-19T04:38:32;20.50;50.90
13115;DHT22;6623;52.120;8.660;2022-09-19T04:40:59;20.50;50.90
13115;DHT22;6623;52.120;8.660;2022-09-19T04:43:26;20.50;50.90
13115;DHT22;6623;52.120;8.660;2022-09-19T04:45:56;20.50;51.50
13115;DHT22;6623;52.120;8.660;2022-09-19T04:48:22;20.50;50.90
13115;DHT22;6623;52.120;8.660;2022-09-19T04:50:49;20.50;51.00
13115;DHT22;6623;52.120;8.660;2022-09-19T04:53:17;20.50;50.90
13115;DHT22;6623;52.120;8.660;2022-09-19T04:55:49;20.50;50.90
13115;DHT22;6623;52.120;8.660;2022-09-19T04:58:16;20.50;50.90
13115;DHT22;6623;52.120;8.660;2022-09-19T05:00:42;20.50;50.90
13115;DHT22;6623;52.120;8.660;2022-09-19T05:03:13;20.50;50.90
13115;DHT22;6623;52.120;8.660;2022-09-19T05:05:40;20.50;50.90
13115;DHT22;6623;52.120;8.660;2022-09-19T05:08:13;20.50;50.90
13115;DHT22;6623;52.120;8.660;2022-09-19T05:10:43;20.50;50.90
13115;DHT22;6623;52.120;8.660;2022-09-19T05:13:09;20.40;50.80
13115;DHT22;6623;52.120;8.660;2022-09-19T05:15:34;20.50;50.90
13115;DHT22;6623;52.120;8.660;2022-09-19T05:18:00;20.50;50.90
13115;DHT22;6623;52.120;8.660;2022-09-19T05:20:26;20.50;50.90
13115;DHT22;6623;52.120;8.660;2022-09-19T05:22:56;20.50;50.90
13115;DHT22;6623;52.120;8.660;2022-09-19T05:25:29;20.50;50.90
13115;DHT22;6623;52.120;8.660;2022-09-19T05:27:58;20.50;50.90
13115;DHT22;6623;52.120;8.660;2022-09-19T05:30:32;20.50;50.90
13115;DHT22;6623;52.120;8.660;2022-09-19T05:32:58;20.50;50.90
13115;DHT22;6623;52.120;8.660;2022-09-19T05:35:25;20.50;51.00
13115;DHT22;6623;52.120;8.660;2022-09-19T05:37:51;20.50;50.90
13115;DHT22;6623;52.120;8.660;2022-09-19T05:40:18;20.50;50.90
13115;DHT22;6623;52.120;8.660;2022-09-19T05:42:44;20.50;51.00
13115;DHT22;6623;52.120;8.660;2022-09-19T05:45:12;20.50;51.00
13115;DHT22;6623;52.120;8.660;2022-09-19T05:47:38;20.50;50.90
13115;DHT22;6623;52.120;8.660;2022-09-19T05:50:11;20.50;50.90
13115;DHT22;6623;52.120;8.660;2022-09-19T05:52:38;20.50;50.90
13115;DHT22;6623;52.120;8.660;2022-09-19T05:55:23;20.50;50.90
13115;DHT22;6623;52.120;8.660;2022-09-19T05:57:50;20.40;50.90
13115;DHT22;6623;52.120;8.660;2022-09-19T06:00:16;20.40;50.90
13115;DHT22;6623;52.120;8.660;2022-09-19T06:02:42;20.50;50.90
13115;DHT22;6623;52.120;8.660;2022-09-19T06:05:07;20.40;50.90
13115;DHT22;6623;52.120;8.660;2022-09-19T06:07:33;20.40;50.90
13115;DHT22;6623;52.120;8.660;2022-09-19T06:09:59;20.50;50.90
13115;DHT22;6623;52.120;8.660;2022-09-19T06:12:25;20.50;50.90
13115;DHT22;6623;52.120;8.660;2022-09-19T06:14:51;20.40;50.90
13115;DHT22;6623;52.120;8.660;2022-09-19T06:17:17;20.50;50.90
13115;DHT22;6623;52.120;8.660;2022-09-19T06:19:42;20.50;50.90
13115;DHT22;6623;52.120;8.660;2022-09-19T06:22:08;20.50;51.00
13115;DHT22;6623;52.120;8.660;2022-09-19T06:24:33;20.40;50.90
13115;DHT22;6623;52.120;8.660;2022-09-19T06:26:59;20.50;50.90
13115;DHT22;6623;52.120;8.660;2022-09-19T06:29:24;20.40;50.90
13115;DHT22;6623;52.120;8.660;2022-09-19T06:31:50;20.50;50.90
13115;DHT22;6623;52.120;8.660;2022-09-19T06:34:15;20.50;50.90
13115;DHT22;6623;52.120;8.660;2022-09-19T06:36:41;20.50;50.90
13115;DHT22;6623;52.120;8.660;2022-09-19T06:39:09;20.50;51.00
13115;DHT22;6623;52.120;8.660;2022-09-19T06:41:35;20.40;50.90
13115;DHT22;6623;52.120;8.660;2022-09-19T06:44:01;20.50;51.00
13115;DHT22;6623;52.120;8.660;2022-09-19T06:46:27;20.40;50.90
13115;DHT22;6623;52.120;8.660;2022-09-19T06:48:53;20.40;50.90
13115;DHT22;6623;52.120;8.660;2022-09-19T06:51:19;20.40;50.90
13115;DHT22;6623;52.120;8.660;2022-09-19T06:53:46;20.40;50.90
13115;DHT22;6623;52.120;8.660;2022-09-19T06:56:13;20.40;50.90
13115;DHT22;6623;52.120;8.660;2022-09-19T06:58:39;20.40;50.90
13115;DHT22;6623;52.120;8.660;2022-09-19T07:01:04;20.40;50.90
13115;DHT22;6623;52.120;8.660;2022-09-19T07:03:30;20.40;50.90
13115;DHT22;6623;52.120;8.660;2022-09-19T07:05:59;20.50;50.90
13115;DHT22;6623;52.120;8.660;2022-09-19T07:08:27;20.40;50.90
13115;DHT22;6623;52.120;8.660;2022-09-19T07:10:55;20.40;50.90
13115;DHT22;6623;52.120;8.660;2022-09-19T07:13:21;20.40;50.90
13115;DHT22;6623;52.120;8.660;2022-09-19T07:15:47;20.40;50.90
13115;DHT22;6623;52.120;8.660;2022-09-19T07:18:13;20.40;51.60
13115;DHT22;6623;52.120;8.660;2022-09-19T07:20:39;20.40;51.00
13115;DHT22;6623;52.120;8.660;2022-09-19T07:23:15;20.40;51.00
13115;DHT22;6623;52.120;8.660;2022-09-19T07:25:42;20.40;51.00
13115;DHT22;6623;52.120;8.660;2022-09-19T07:28:16;20.40;51.00
13115;DHT22;6623;52.120;8.660;2022-09-19T07:30:43;20.40;51.00
13115;DHT22;6623;52.120;8.660;2022-09-19T07:33:10;20.40;51.00
13115;DHT22;6623;52.120;8.660;2022-09-19T07:35:37;20.40;51.00
13115;DHT22;6623;52.120;8.660;2022-09-19T07:38:04;20.40;51.00
13115;DHT22;6623;52.120;8.660;2022-09-19T07:40:32;20.40;51.00
13115;DHT22;6623;52.120;8.660;2022-09-19T07:43:02;20.40;51.00
13115;DHT22;6623;52.120;8.660;2022-09-19T07:45:28;20.40;51.00
13115;DHT22;6623;52.120;8.660;2022-09-19T07:47:54;20.40;51.00
13115;DHT22;6623;52.120;8.660;2022-09-19T07:50:21;20.40;51.00
13115;DHT22;6623;52.120;8.660;2022-09-19T07:52:47;20.40;51.00
13115;DHT22;6623;52.120;8.660;2022-09-19T07:55:13;20.40;51.00
13115;DHT22;6623;52.120;8.660;2022-09-19T07:57:49;20.50;51.10
13115;DHT22;6623;52.120;8.660;2022-09-19T08:00:16;20.40;51.00
13115;DHT22;6623;52.120;8.660;2022-09-19T08:02:41;20.40;51.00
13115;DHT22;6623;52.120;8.660;2022-09-19T08:05:07;20.40;51.00
13115;DHT22;6623;52.120;8.660;2022-09-19T08:07:32;20.40;51.10
13115;DHT22;6623;52.120;8.660;2022-09-19T08:09:58;20.40;51.10
13115;DHT22;6623;52.120;8.660;2022-09-19T08:12:24;20.40;51.10
13115;DHT22;6623;52.120;8.660;2022-09-19T08:14:50;20.40;51.10
13115;DHT22;6623;52.120;8.660;2022-09-19T08:17:16;20.40;51.10
13115;DHT22;6623;52.120;8.660;2022-09-19T08:19:42;20.40;51.70
13115;DHT22;6623;52.120;8.660;2022-09-19T08:22:08;20.40;51.80
13115;DHT22;6623;52.120;8.660;2022-09-19T08:24:34;20.40;51.10
13115;DHT22;6623;52.120;8.660;2022-09-19T08:27:00;20.40;51.20
13115;DHT22;6623;52.120;8.660;2022-09-19T08:29:26;20.40;51.20
13115;DHT22;6623;52.120;8.660;2022-09-19T08:31:52;20.40;51.20
13115;DHT22;6623;52.120;8.660;2022-09-19T08:34:18;20.40;51.10
13115;DHT22;6623;52.120;8.660;2022-09-19T08:36:43;20.40;51.20
13115;DHT22;6623;52.120;8.660;2022-09-19T08:39:09;20.40;51.20
13115;DHT22;6623;52.120;8.660;2022-09-19T08:42:38;20.40;51.20
13115;DHT22;6623;52.120;8.660;2022-09-19T08:47:16;20.40;51.20
13115;DHT22;6623;52.120;8.660;2022-09-19T08:49:47;20.40;51.20
13115;DHT22;6623;52.120;8.660;2022-09-19T08:55:05;20.40;51.20
13115;DHT22;6623;52.120;8.660;2022-09-19T08:57:34;20.40;51.30
13115;DHT22;6623;52.120;8.660;2022-09-19T09:00:05;20.40;51.20
13115;DHT22;6623;52.120;8.660;2022-09-19T09:03:05;20.40;51.20
13115;DHT22;6623;52.120;8.660;2022-09-19T09:10:53;20.40;51.20
13115;DHT22;6623;52.120;8.660;2022-09-19T09:13:33;20.40;51.20
13115;DHT22;6623;52.120;8.660;2022-09-19T09:16:29;20.40;51.20
13115;DHT22;6623;52.120;8.660;2022-09-19T09:22:12;20.40;51.20
13115;DHT22;6623;52.120;8.660;2022-09-19T09:24:47;20.40;51.30
13115;DHT22;6623;52.120;8.660;2022-09-19T09:27:20;20.40;51.30
13115;DHT22;6623;52.120;8.660;2022-09-19T09:29:53;20.40;51.30
13115;DHT22;6623;52.120;8.660;2022-09-19T09:32:42;20.40;51.20
13115;DHT22;6623;52.120;8.660;2022-09-19T09:40:48;20.40;51.20
13115;DHT22;6623;52.120;8.660;2022-09-19T09:43:45;20.40;51.30
13115;DHT22;6623;52.120;8.660;2022-09-19T09:46:15;20.40;51.30
13115;DHT22;6623;52.120;8.660;2022-09-19T09:48:43;20.40;51.20
13115;DHT22;6623;52.120;8.660;2022-09-19T09:54:20;20.40;51.30
13115;DHT22;6623;52.120;8.660;2022-09-19T09:57:37;20.40;51.30
13115;DHT22;6623;52.120;8.660;2022-09-19T10:00:14;20.40;51.30
13115;DHT22;6623;52.120;8.660;2022-09-19T10:03:22;20.40;51.30
13115;DHT22;6623;52.120;8.660;2022-09-19T10:06:28;20.40;51.30
13115;DHT22;6623;52.120;8.660;2022-09-19T10:11:48;20.40;51.30
13115;DHT22;6623;52.120;8.660;2022-09-19T10:14:19;20.40;51.30
13115;DHT22;6623;52.120;8.660;2022-09-19T10:16:48;20.40;51.40
13115;DHT22;6623;52.120;8.660;2022-09-19T10:19:39;20.40;51.30
13115;DHT22;6623;52.120;8.660;2022-09-19T10:22:09;20.40;51.40
13115;DHT22;6623;52.120;8.660;2022-09-19T10:24:54;20.40;51.30
13115;DHT22;6623;52.120;8.660;2022-09-19T10:27:37;20.30;51.30
13115;DHT22;6623;52.120;8.660;2022-09-19T10:30:22;20.40;51.40
13115;DHT22;6623;52.120;8.660;2022-09-19T10:32:51;20.40;51.40
13115;DHT22;6623;52.120;8.660;2022-09-19T10:35:34;20.40;51.40
13115;DHT22;6623;52.120;8.660;2022-09-19T10:38:00;20.40;51.40
13115;DHT22;6623;52.120;8.660;2022-09-19T10:40:29;20.40;51.40
13115;DHT22;6623;52.120;8.660;2022-09-19T10:42:55;20.40;51.50
13115;DHT22;6623;52.120;8.660;2022-09-19T10:45:33;20.40;51.40
13115;DHT22;6623;52.120;8.660;2022-09-19T10:48:37;20.40;51.50
13115;DHT22;6623;52.120;8.660;2022-09-19T10:50:55;20.40;51.50
13115;DHT22;6623;52.120;8.660;2022-09-19T10:53:30;20.40;51.50
13115;DHT22;6623;52.120;8.660;2022-09-19T10:56:02;20.40;51.50
13115;DHT22;6623;52.120;8.660;2022-09-19T10:58:31;20.40;52.20
13115;DHT22;6623;52.120;8.660;2022-09-19T11:01:22;20.40;51.50
13115;DHT22;6623;52.120;8.660;2022-09-19T11:06:35;20.40;51.60
13115;DHT22;6623;52.120;8.660;2022-09-19T11:09:32;20.40;51.60
13115;DHT22;6623;52.120;8.660;2022-09-19T11:12:13;20.40;51.60
13115;DHT22;6623;52.120;8.660;2022-09-19T11:14:43;20.40;51.70
13115;DHT22;6623;52.120;8.660;2022-09-19T11:20:14;20.40;51.70
13115;DHT22;6623;52.120;8.660;2022-09-19T11:22:51;20.40;51.70
13115;DHT22;6623;52.120;8.660;2022-09-19T11:25:44;20.40;51.80
13115;DHT22;6623;52.120;8.660;2022-09-19T11:42:38;20.40;51.90
13115;DHT22;6623;52.120;8.660;2022-09-19T11:45:17;20.30;51.90
13115;DHT22;6623;52.120;8.660;2022-09-19T11:48:12;20.30;51.90
13115;DHT22;6623;52.120;8.660;2022-09-19T11:54:42;20.30;51.80
13115;DHT22;6623;52.120;8.660;2022-09-19T11:57:27;20.30;51.90
13115;DHT22;6623;52.120;8.660;2022-09-19T12:03:03;20.40;52.00
13115;DHT22;6623;52.120;8.660;2022-09-19T12:08:34;20.30;52.00
13115;DHT22;6623;52.120;8.660;2022-09-19T12:11:12;20.40;52.10
13115;DHT22;6623;52.120;8.660;2022-09-19T12:13:57;20.30;52.00
13115;DHT22;6623;52.120;8.660;2022-09-19T12:16:58;20.40;52.20
13115;DHT22;6623;52.120;8.660;2022-09-19T12:19:43;20.30;52.10
13115;DHT22;6623;52.120;8.660;2022-09-19T12:22:30;20.30;52.10
13115;DHT22;6623;52.120;8.660;2022-09-19T12:25:15;20.30;52.10
13115;DHT22;6623;52.120;8.660;2022-09-19T12:27:54;20.40;52.20
13115;DHT22;6623;52.120;8.660;2022-09-19T12:30:22;20.30;52.10
13115;DHT22;6623;52.120;8.660;2022-09-19T12:33:04;20.30;52.20
13115;DHT22;6623;52.120;8.660;2022-09-19T12:36:00;20.30;52.20
13115;DHT22;6623;52.120;8.660;2022-09-19T12:38:37;20.30;52.20
13115;DHT22;6623;52.120;8.660;2022-09-19T12:41:11;20.30;52.20
13115;DHT22;6623;52.120;8.660;2022-09-19T12:43:51;20.30;52.20
13115;DHT22;6623;52.120;8.660;2022-09-19T12:46:48;20.40;52.30
13115;DHT22;6623;52.120;8.660;2022-09-19T12:49:20;20.30;52.20
13115;DHT22;6623;52.120;8.660;2022-09-19T12:54:57;20.30;52.20
13115;DHT22;6623;52.120;8.660;2022-09-19T12:57:34;20.30;52.30
13115;DHT22;6623;52.120;8.660;2022-09-19T13:00:03;20.30;52.30
13115;DHT22;6623;52.120;8.660;2022-09-19T13:05:18;20.40;52.30
13115;DHT22;6623;52.120;8.660;2022-09-19T13:13:38;20.40;52.40
13115;DHT22;6623;52.120;8.660;2022-09-19T13:16:18;20.40;52.40
13115;DHT22;6623;52.120;8.660;2022-09-19T13:18:48;20.30;52.40
13115;DHT22;6623;52.120;8.660;2022-09-19T13:21:38;20.40;52.50
13115;DHT22;6623;52.120;8.660;2022-09-19T13:27:12;20.30;52.40
13115;DHT22;6623;52.120;8.660;2022-09-19T13:47:04;20.30;52.50
13115;DHT22;6623;52.120;8.660;2022-09-19T13:49:48;20.30;52.60
13115;DHT22;6623;52.120;8.660;2022-09-19T13:52:24;20.30;52.60
13115;DHT22;6623;52.120;8.660;2022-09-19T13:57:27;20.30;52.70
13115;DHT22;6623;52.120;8.660;2022-09-19T13:59:56;20.30;52.70
13115;DHT22;6623;52.120;8.660;2022-09-19T14:02:36;20.30;52.70
13115;DHT22;6623;52.120;8.660;2022-09-19T14:07:55;20.30;52.60
13115;DHT22;6623;52.120;8.660;2022-09-19T14:15:48;20.30;52.70
13115;DHT22;6623;52.120;8.660;2022-09-19T14:21:06;20.30;52.60
13115;DHT22;6623;52.120;8.660;2022-09-19T14:23:40;20.30;52.60
13115;DHT22;6623;52.120;8.660;2022-09-19T14:32:06;20.30;52.60
13115;DHT22;6623;52.120;8.660;2022-09-19T14:45:36;20.40;52.60
13115;DHT22;6623;52.120;8.660;2022-09-19T14:48:36;20.30;52.60
13115;DHT22;6623;52.120;8.660;2022-09-19T14:51:40;20.30;52.60
13115;DHT22;6623;52.120;8.660;2022-09-19T14:54:15;20.30;52.60
13115;DHT22;6623;52.120;8.660;2022-09-19T14:59:26;20.30;52.60
13115;DHT22;6623;52.120;8.660;2022-09-19T15:01:53;20.30;52.60
13115;DHT22;6623;52.120;8.660;2022-09-19T15:04:23;20.30;52.60
13115;DHT22;6623;52.120;8.660;2022-09-19T15:06:52;20.30;52.60
13115;DHT22;6623;52.120;8.660;2022-09-19T15:09:30;20.30;52.60
13115;DHT22;6623;52.120;8.660;2022-09-19T15:11:57;20.30;52.60
13115;DHT22;6623;52.120;8.660;2022-09-19T15:14:25;20.40;52.60
13115;DHT22;6623;52.120;8.660;2022-09-19T15:17:30;20.30;52.60
13115;DHT22;6623;52.120;8.660;2022-09-19T15:25:34;20.40;52.60
13115;DHT22;6623;52.120;8.660;2022-09-19T15:28:03;20.30;52.60
13115;DHT22;6623;52.120;8.660;2022-09-19T15:30:49;20.30;52.60
13115;DHT22;6623;52.120;8.660;2022-09-19T15:33:15;20.40;52.70
13115;DHT22;6623;52.120;8.660;2022-09-19T15:35:43;20.40;52.60
13115;DHT22;6623;52.120;8.660;2022-09-19T15:38:19;20.40;52.70
13115;DHT22;6623;52.120;8.660;2022-09-19T15:40:46;20.40;52.60
13115;DHT22;6623;52.120;8.660;2022-09-19T15:43:13;20.40;52.70
13115;DHT22;6623;52.120;8.660;2022-09-19T15:45:46;20.40;52.60
13115;DHT22;6623;52.120;8.660;2022-09-19T15:50:55;20.40;52.60
13115;DHT22;6623;52.120;8.660;2022-09-19T15:53:38;20.40;52.60
13115;DHT22;6623;52.120;8.660;2022-09-19T15:56:10;20.40;52.70
13115;DHT22;6623;52.120;8.660;2022-09-19T15:58:42;20.40;52.60
13115;DHT22;6623;52.120;8.660;2022-09-19T16:04:16;20.40;52.60
13115;DHT22;6623;52.120;8.660;2022-09-19T16:09:41;20.40;52.70
13115;DHT22;6623;52.120;8.660;2022-09-19T16:14:59;20.40;52.70
13115;DHT22;6623;52.120;8.660;2022-09-19T16:23:02;20.30;52.70
13115;DHT22;6623;52.120;8.660;2022-09-19T16:25:41;20.30;52.60
13115;DHT22;6623;52.120;8.660;2022-09-19T16:28:17;20.30;52.60
13115;DHT22;6623;52.120;8.660;2022-09-19T16:30:52;20.40;52.70
13115;DHT22;6623;52.120;8.660;2022-09-19T16:33:18;20.30;52.60
13115;DHT22;6623;52.120;8.660;2022-09-19T16:35:49;20.30;52.60
13115;DHT22;6623;52.120;8.660;2022-09-19T16:38:23;20.40;52.60
13115;DHT22;6623;52.120;8.660;2022-09-19T16:40:57;20.40;52.70
13115;DHT22;6623;52.120;8.660;2022-09-19T16:43:38;20.40;52.70
13115;DHT22;6623;52.120;8.660;2022-09-19T16:46:11;20.40;52.70
13115;DHT22;6623;52.120;8.660;2022-09-19T16:48:38;20.30;52.60
13115;DHT22;6623;52.120;8.660;2022-09-19T16:51:05;20.40;52.70
13115;DHT22;6623;52.120;8.660;2022-09-19T16:53:36;20.30;52.60
13115;DHT22;6623;52.120;8.660;2022-09-19T16:56:02;20.40;52.60
13115;DHT22;6623;52.120;8.660;2022-09-19T16:58:29;20.30;52.60
13115;DHT22;6623;52.120;8.660;2022-09-19T17:00:55;20.40;52.60
13115;DHT22;6623;52.120;8.660;2022-09-19T17:03:20;20.30;52.60
13115;DHT22;6623;52.120;8.660;2022-09-19T17:05:46;20.30;52.60
13115;DHT22;6623;52.120;8.660;2022-09-19T17:08:12;20.30;52.60
13115;DHT22;6623;52.120;8.660;2022-09-19T17:10:39;20.30;52.60
13115;DHT22;6623;52.120;8.660;2022-09-19T17:13:05;20.40;52.70
13115;DHT22;6623;52.120;8.660;2022-09-19T17:16:01;20.40;52.60
13115;DHT22;6623;52.120;8.660;2022-09-19T17:18:29;20.40;52.60
13115;DHT22;6623;52.120;8.660;2022-09-19T17:20:57;20.30;52.60
13115;DHT22;6623;52.120;8.660;2022-09-19T17:23:25;20.30;52.60
13115;DHT22;6623;52.120;8.660;2022-09-19T17:25:53;20.30;52.60
13115;DHT22;6623;52.120;8.660;2022-09-19T17:28:25;20.30;52.60
13115;DHT22;6623;52.120;8.660;2022-09-19T17:30:52;20.30;52.60
13115;DHT22;6623;52.120;8.660;2022-09-19T17:33:20;20.30;52.50
13115;DHT22;6623;52.120;8.660;2022-09-19T17:35:46;20.40;52.60
13115;DHT22;6623;52.120;8.660;2022-09-19T17:38:12;20.40;52.60
13115;DHT22;6623;52.120;8.660;2022-09-19T17:40:40;20.40;52.60
13115;DHT22;6623;52.120;8.660;2022-09-19T17:43:11;20.30;52.50
13115;DHT22;6623;52.120;8.660;2022-09-19T17:45:39;20.30;52.50
13115;DHT22;6623;52.120;8.660;2022-09-19T17:48:04;20.30;52.50
13115;DHT22;6623;52.120;8.660;2022-09-19T17:50:30;20.40;52.60
13115;DHT22;6623;52.120;8.660;2022-09-19T17:52:56;20.30;52.50
13115;DHT22;6623;52.120;8.660;2022-09-19T17:55:22;20.30;52.60
13115;DHT22;6623;52.120;8.660;2022-09-19T17:57:48;20.40;52.60
13115;DHT22;6623;52.120;8.660;2022-09-19T18:00:14;20.30;52.60
13115;DHT22;6623;52.120;8.660;2022-09-19T18:02:41;20.30;52.60
13115;DHT22;6623;52.120;8.660;2022-09-19T18:05:26;20.30;52.60
13115;DHT22;6623;52.120;8.660;2022-09-19T18:07:52;20.30;52.60
13115;DHT22;6623;52.120;8.660;2022-09-19T18:10:21;20.30;52.60
13115;DHT22;6623;52.120;8.660;2022-09-19T18:12:47;20.30;52.60
13115;DHT22;6623;52.120;8.660;2022-09-19T18:15:14;20.30;52.60
13115;DHT22;6623;52.120;8.660;2022-09-19T18:17:39;20.30;52.60
13115;DHT22;6623;52.120;8.660;2022-09-19T18:20:05;20.30;52.60
13115;DHT22;6623;52.120;8.660;2022-09-19T18:22:31;20.30;52.70
13115;DHT22;6623;52.120;8.660;2022-09-19T18:24:57;20.30;52.70
13115;DHT22;6623;52.120;8.660;2022-09-19T18:27:24;20.30;52.60
13115;DHT22;6623;52.120;8.660;2022-09-19T18:29:50;20.40;52.70
13115;DHT22;6623;52.120;8.660;2022-09-19T18:32:15;20.30;52.60
13115;DHT22;6623;52.120;8.660;2022-09-19T18:34:41;20.30;52.60
13115;DHT22;6623;52.120;8.660;2022-09-19T18:37:06;20.40;52.70
13115;DHT22;6623;52.120;8.660;2022-09-19T18:39:32;20.30;52.70
13115;DHT22;6623;52.120;8.660;2022-09-19T18:41:57;20.30;52.60
13115;DHT22;6623;52.120;8.660;2022-09-19T18:44:23;20.30;52.60
13115;DHT22;6623;52.120;8.660;2022-09-19T18:46:48;20.30;52.60
13115;DHT22;6623;52.120;8.660;2022-09-19T18:49:14;20.30;52.70
13115;DHT22;6623;52.120;8.660;2022-09-19T18:51:41;20.40;52.80
13115;DHT22;6623;52.120;8.660;2022-09-19T18:54:07;20.30;52.70
13115;DHT22;6623;52.120;8.660;2022-09-19T18:56:34;20.30;52.70
13115;DHT22;6623;52.120;8.660;2022-09-19T18:58:59;20.30;52.70
13115;DHT22;6623;52.120;8.660;2022-09-19T19:01:26;20.30;52.70